Time;durP1;ratioP1;P1;durP2;ratioP2;P2;SDS_P1;SDS_P2;PMS_P1;PMS_P2;Temp;Humidity;BMP_temperature;BMP_pressure;BME280_temperature;BME280_humidity;BME280_pressure;Samples;Min_cycle;Max_cycle;Signal;HPM_P1;HPM_P2
2022/07/25 00:02:43;;;;;;;8.48;5.93;;;;;;;24.19;68.13;100963.75;20846521;28;20064;-60
2022/07/25 00:13:05;;;;;;;9.23;5.63;;;;;;;23.90;67.76;100956.56;20830959;28;22381;-60
2022/07/25 00:23:26;;;;;;;7.38;5.50;;;;;;;23.67;69.87;100957.56;20845024;28;20137;-60
2022/07/25 00:33:48;;;;;;;8.68;5.68;;;;;;;;;;20835475;28;20043;-59
2022/07/25 00:44:21;;;;;;;9.50;5.97;;;;;;;23.37;72.34;100939.84;20828423;28;20045;-59
2022/07/25 00:54:45;;;;;;;9.05;5.85;;;;;;;23.37;71.58;100931.84;20843270;28;20049;-61
2022/07/25 01:05:07;;;;;;;8.05;6.03;;;;;;;23.14;72.76;100916.88;20832700;28;20051;-60
2022/07/25 01:15:31;;;;;;;13.27;6.30;;;;;;;23.12;71.58;100901.13;20831833;28;20042;-60
2022/07/25 01:25:53;;;;;;;7.95;6.15;;;;;;;22.99;72.11;100890.22;20835235;28;20041;-61
2022/07/25 01:36:14;;;;;;;11.13;5.97;;;;;;;22.93;71.79;100866.97;20835925;28;20445;-60
2022/07/25 01:46:36;;;;;;;10.63;6.20;;;;;;;22.85;72.98;100864.34;20851292;28;20060;-62
2022/07/25 01:56:58;;;;;;;7.72;6.35;;;;;;;22.78;71.30;100841.28;20846123;28;20068;-60
2022/07/25 02:07:19;;;;;;;9.73;6.15;;;;;;;22.97;69.48;100833.69;20843378;28;20052;-60
2022/07/25 02:17:41;;;;;;;7.25;6.18;;;;;;;22.73;71.89;100811.78;20856287;28;20049;-60
2022/07/25 02:28:02;;;;;;;6.05;5.45;;;;;;;22.79;71.88;100797.75;20850418;28;20052;-60
2022/07/25 02:38:25;;;;;;;8.55;6.07;;;;;;;22.55;72.21;100785.47;20846298;28;20120;-59
2022/07/25 02:48:46;;;;;;;7.75;5.50;;;;;;;22.37;72.77;100762.00;20842997;28;20504;-59
2022/07/25 02:59:08;;;;;;;11.43;6.03;;;;;;;22.39;72.69;100735.09;20842420;28;20124;-61
2022/07/25 03:09:29;;;;;;;6.53;5.93;;;;;;;22.53;70.01;100728.19;20847825;28;20053;-60
2022/07/25 03:19:51;;;;;;;8.57;6.18;;;;;;;22.40;70.58;100723.47;20853856;28;20041;-61
2022/07/25 03:30:12;;;;;;;10.60;6.25;;;;;;;22.45;70.73;100714.97;20843770;28;20518;-61
2022/07/25 03:40:35;;;;;;;7.60;5.55;;;;;;;22.34;69.62;100698.59;20848382;28;20643;-60
2022/07/25 03:50:56;;;;;;;8.15;5.65;;;;;;;22.38;68.75;100690.94;20841409;28;20055;-64
2022/07/25 04:01:21;;;;;;;10.88;6.00;;;;;;;22.44;67.66;100660.97;20835431;28;20107;-60
2022/07/25 04:11:43;;;;;;;7.10;5.50;;;;;;;22.44;67.47;100646.88;20826263;28;20118;-59
2022/07/25 04:22:04;;;;;;;6.40;5.40;;;;;;;22.50;67.48;100643.47;20836947;28;20045;-62
2022/07/25 04:32:26;;;;;;;6.70;5.30;;;;;;;22.50;67.27;100619.56;20833406;28;20053;-59
2022/07/25 04:42:48;;;;;;;5.97;5.15;;;;;;;22.58;66.80;100620.31;20834708;28;20099;-59
2022/07/25 04:53:09;;;;;;;6.75;5.47;;;;;;;22.48;66.55;100601.16;20844326;28;20041;-59
2022/07/25 05:03:31;;;;;;;6.53;5.40;;;;;;;22.78;66.30;100586.06;20829482;28;20044;-60
2022/07/25 05:13:52;;;;;;;10.13;5.78;;;;;;;22.81;66.87;100591.88;20858219;28;20410;-60
2022/07/25 05:24:14;;;;;;;6.45;5.32;;;;;;;23.04;65.15;100597.91;20854996;28;20501;-59
2022/07/25 05:34:35;;;;;;;7.03;4.90;;;;;;;23.02;66.78;100588.47;20862511;28;20051;-59
2022/07/25 05:44:57;;;;;;;10.60;5.30;;;;;;;23.00;66.91;100585.97;20861061;28;20045;-60
2022/07/25 05:55:19;;;;;;;9.18;5.28;;;;;;;23.28;65.92;100573.72;20865684;28;20045;-59
2022/07/25 06:05:40;;;;;;;6.88;5.30;;;;;;;23.50;64.92;100586.03;20861936;28;20656;-60
2022/07/25 06:16:02;;;;;;;9.55;5.35;;;;;;;23.67;64.91;100568.84;20862627;28;20075;-60
2022/07/25 06:26:24;;;;;;;6.13;5.15;;;;;;;23.78;64.65;100565.69;20856069;28;20098;-59
2022/07/25 06:36:45;;;;;;;12.73;5.18;;;;;;;24.10;64.04;100559.88;20849021;28;20048;-60
2022/07/25 06:47:11;;;;;;;9.93;5.40;;;;;;;24.07;63.61;100554.91;20854151;28;20478;-61
2022/07/25 06:57:34;;;;;;;9.05;4.72;;;;;;;24.50;62.89;100544.03;20832245;28;20481;-60
2022/07/25 07:07:56;;;;;;;4.90;4.47;;;;;;;24.42;63.65;100538.78;20851320;28;20544;-60
2022/07/25 07:18:19;;;;;;;7.93;4.60;;;;;;;24.63;63.04;100542.25;20839999;28;20137;-61
2022/07/25 07:28:41;;;;;;;7.97;5.30;;;;;;;25.17;61.71;100529.03;20847051;28;20052;-63
2022/07/25 07:39:02;;;;;;;8.63;4.78;;;;;;;25.52;60.24;100520.72;20854250;28;20053;-61
2022/07/25 07:49:24;;;;;;;7.22;5.10;;;;;;;25.67;60.27;100505.34;20848233;28;20115;-59
2022/07/25 07:59:46;;;;;;;10.23;4.72;;;;;;;26.17;59.25;100496.78;20847960;28;20045;-60
2022/07/25 08:10:08;;;;;;;7.28;4.70;;;;;;;26.50;56.95;100493.06;20848553;28;20059;-61
2022/07/25 08:20:30;;;;;;;6.88;4.43;;;;;;;26.89;56.42;100471.50;20824089;28;20088;-61
2022/07/25 08:30:59;;;;;;;7.63;4.72;;;;;;;27.14;56.42;100470.59;20843239;28;20041;-60
2022/07/25 08:41:22;;;;;;;7.72;4.38;;;;;;;27.47;54.54;100476.59;20842571;28;20041;-61
2022/07/25 08:51:46;;;;;;;6.28;4.30;;;;;;;27.67;54.38;100469.25;20837143;28;20123;-61
2022/07/25 09:02:13;;;;;;;10.80;4.30;;;;;;;27.51;54.67;100456.38;20838107;28;20042;-61
2022/07/25 09:12:35;;;;;;;7.07;4.50;;;;;;;27.99;53.95;100441.38;20836202;28;20053;-61
2022/07/25 09:22:59;;;;;;;6.47;4.57;;;;;;;28.15;52.41;100448.88;20830053;28;20045;-61
2022/07/25 09:33:23;;;;;;;4.35;3.95;;;;;;;28.37;53.71;100450.94;20832769;28;20046;-62
2022/07/25 09:43:44;;;;;;;6.30;4.20;;;;;;;28.84;50.54;100444.84;20846655;28;20045;-61
2022/07/25 09:54:06;;;;;;;4.88;4.15;;;;;;;28.61;51.94;100456.25;20830851;28;20052;-61
2022/07/25 10:05:10;;;;;;;6.18;3.95;;;;;;;28.47;51.46;100454.75;20852125;28;20057;-61
2022/07/25 10:15:50;;;;;;;8.25;4.40;;;;;;;28.62;51.06;100452.53;20854847;28;20053;-61
2022/07/25 10:26:15;;;;;;;6.28;4.05;;;;;;;28.87;53.01;100450.59;20855419;28;20103;-61
2022/07/25 10:36:56;;;;;;;7.55;4.68;;;;;;;29.08;49.36;100450.13;20841424;28;20053;-61
2022/07/25 10:47:22;;;;;;;8.15;4.95;;;;;;;28.85;50.98;100436.56;20847045;28;20050;-61
2022/07/25 10:57:43;;;;;;;5.22;4.50;;;;;;;29.35;50.66;100443.31;20851631;28;20511;-61
2022/07/25 11:08:32;;;;;;;10.45;5.68;;;;;;;29.54;50.86;100443.06;20834181;28;20041;-62
2022/07/25 11:18:53;;;;;;;5.55;4.95;;;;;;;28.90;53.39;100450.16;20836792;28;20060;-61
2022/07/25 11:29:25;;;;;;;8.20;5.10;;;;;;;29.08;53.38;100458.19;20841066;28;20045;-61
2022/07/25 11:39:47;;;;;;;7.90;5.93;;;;;;;29.25;53.24;100464.56;20839743;28;20052;-62
2022/07/25 11:50:13;;;;;;;10.95;7.22;;;;;;;28.83;55.83;100470.88;20848084;28;20049;-61
2022/07/25 12:00:40;;;;;;;12.73;9.52;;;;;;;28.45;56.91;100488.22;20834143;28;20049;-62
2022/07/25 12:11:02;;;;;;;10.25;8.30;;;;;;;28.21;57.71;100501.63;20837766;28;20152;-61
2022/07/25 12:21:23;;;;;;;12.85;8.57;;;;;;;28.56;55.91;100512.44;20836365;28;20045;-62
2022/07/25 12:31:45;;;;;;;12.85;7.28;;;;;;;28.65;56.46;100511.13;20835595;28;20701;-62
2022/07/25 12:42:06;;;;;;;4.82;4.00;;;;;;;27.75;55.11;100533.34;20835927;28;20080;-62
2022/07/25 12:52:28;;;;;;;5.65;3.63;;;;;;;26.89;56.89;100555.31;20817350;28;20049;-61
2022/07/25 13:02:51;;;;;;;4.28;2.70;;;;;;;26.51;58.19;100559.69;20822521;28;20045;-61
2022/07/25 13:13:13;;;;;;;5.38;3.13;;;;;;;25.46;67.06;100585.63;20799061;28;20085;-61
2022/07/25 13:23:35;;;;;;;9.55;3.38;;;;;;;25.33;66.74;100593.56;20821282;28;20582;-61
2022/07/25 13:33:57;;;;;;;7.88;3.10;;;;;;;24.84;72.48;100592.88;20833794;28;20467;-62
2022/07/25 13:44:19;;;;;;;6.70;2.90;;;;;;;24.66;76.52;100589.88;20834679;28;20049;-62
2022/07/25 13:54:41;;;;;;;5.18;3.15;;;;;;;24.76;75.19;100602.88;20817866;28;20045;-62
2022/07/25 14:05:03;;;;;;;3.45;2.70;;;;;;;24.82;73.33;100592.25;20825526;28;20453;-61
2022/07/25 14:15:25;;;;;;;2.67;2.47;;;;;;;24.81;72.51;100595.91;20829892;28;20053;-61
2022/07/25 14:25:47;;;;;;;2.38;1.90;;;;;;;24.56;73.46;100597.41;20832510;28;20042;-61
2022/07/25 14:36:09;;;;;;;2.83;1.85;;;;;;;24.89;71.74;100589.59;20825168;28;20037;-62
2022/07/25 14:46:30;;;;;;;4.38;1.50;;;;;;;24.97;68.74;100597.44;20830255;28;20049;-62
2022/07/25 14:56:53;;;;;;;6.85;1.80;;;;;;;24.70;68.91;100606.31;20809142;28;20544;-62
2022/07/25 15:07:15;;;;;;;5.28;1.70;;;;;;;24.65;67.18;100620.22;20812104;28;20042;-62
2022/07/25 15:17:37;;;;;;;4.90;1.73;;;;;;;24.74;66.23;100605.72;20821711;28;20086;-62
2022/07/25 15:27:59;;;;;;;4.28;1.33;;;;;;;24.87;66.58;100605.81;20812665;28;20079;-61
2022/07/25 15:38:20;;;;;;;5.00;1.27;;;;;;;24.88;61.21;100603.97;20817172;28;20454;-62
2022/07/25 15:48:43;;;;;;;5.70;1.40;;;;;;;24.93;61.98;100610.34;20820172;28;20053;-61
2022/07/25 15:59:05;;;;;;;10.88;1.52;;;;;;;24.57;61.27;100632.88;20822678;28;20057;-62
2022/07/25 16:09:27;;;;;;;7.03;1.83;;;;;;;24.40;60.36;100632.28;20814807;28;20668;-63
2022/07/25 16:19:48;;;;;;;6.50;2.47;;;;;;;24.12;61.71;100648.44;20832661;28;20133;-61
2022/07/25 16:30:10;;;;;;;7.07;2.50;;;;;;;24.26;61.79;100658.19;20823915;28;20042;-61
2022/07/25 16:40:33;;;;;;;6.68;1.95;;;;;;;24.46;61.41;100646.72;20813147;28;20045;-61
2022/07/25 16:50:54;;;;;;;13.50;2.50;;;;;;;25.02;60.46;100657.22;20823207;28;20079;-61
2022/07/25 17:01:31;;;;;;;6.55;2.28;;;;;;;24.92;61.66;100648.72;20907903;28;20384;-61
2022/07/25 17:11:52;;;;;;;8.07;2.38;;;;;;;24.46;62.75;100631.53;20873493;28;20041;-60
2022/07/25 17:22:14;;;;;;;6.57;2.13;;;;;;;25.25;59.24;100627.63;20875948;28;20046;-62
2022/07/25 17:32:36;;;;;;;9.02;1.75;;;;;;;25.33;58.44;100651.47;20882695;28;20042;-60
2022/07/25 17:42:58;;;;;;;4.97;1.67;;;;;;;25.46;56.25;100658.53;20877090;28;20068;-60
2022/07/25 17:53:19;;;;;;;8.57;1.60;;;;;;;24.84;55.51;100667.56;20877064;28;20041;-61
2022/07/25 18:03:41;;;;;;;7.15;1.55;;;;;;;24.62;54.75;100668.59;20879602;28;20049;-61
2022/07/25 18:14:03;;;;;;;9.75;1.70;;;;;;;24.03;54.91;100676.19;20819526;28;20446;-63
2022/07/25 18:24:25;;;;;;;13.05;1.48;;;;;;;23.79;55.81;100680.03;20823743;28;20678;-61
2022/07/25 18:34:49;;;;;;;19.02;1.60;;;;;;;23.58;57.71;100697.72;20836329;28;20109;-59
2022/07/25 18:45:11;;;;;;;9.35;1.65;;;;;;;23.25;57.40;100696.47;20838807;28;20047;-61
2022/07/25 18:55:34;;;;;;;2.75;1.10;;;;;;;23.04;57.79;100688.34;20810506;28;20040;-61
2022/07/25 19:05:55;;;;;;;6.38;1.38;;;;;;;22.80;58.08;100704.53;20818666;28;20049;-61
2022/07/25 19:16:23;;;;;;;6.50;1.25;;;;;;;22.66;58.87;100718.63;20817064;28;20065;-61
2022/07/25 19:26:46;;;;;;;7.43;1.02;;;;;;;22.59;59.44;100730.13;20802541;28;20041;-61
2022/07/25 19:37:09;;;;;;;4.68;0.90;;;;;;;22.55;60.13;100748.28;20817876;28;20046;-60
2022/07/25 19:47:30;;;;;;;2.63;1.17;;;;;;;22.44;60.94;100761.94;20819516;28;20049;-60
2022/07/25 19:57:52;;;;;;;5.38;1.08;;;;;;;22.30;61.23;100761.00;20826069;28;20046;-61
2022/07/25 20:08:13;;;;;;;4.22;1.10;;;;;;;22.20;62.00;100765.72;20813204;28;20038;-60
2022/07/25 20:18:35;;;;;;;7.13;1.27;;;;;;;22.14;62.95;100767.25;20797861;28;20042;-61
2022/07/25 20:28:57;;;;;;;8.32;1.38;;;;;;;22.00;63.86;100783.09;20811345;28;20045;-61
2022/07/25 20:39:18;;;;;;;6.47;1.30;;;;;;;21.88;65.03;100780.00;20799787;28;20049;-61
2022/07/25 20:49:41;;;;;;;10.45;1.40;;;;;;;21.96;64.73;100789.75;20817842;28;20049;-61
2022/07/25 21:00:03;;;;;;;6.57;1.20;;;;;;;21.86;65.57;100789.13;20829191;28;20042;-61
2022/07/25 21:10:25;;;;;;;4.28;1.27;;;;;;;21.70;66.68;100805.09;20811627;28;20045;-63
2022/07/25 21:20:47;;;;;;;9.88;1.70;;;;;;;21.49;67.76;100799.50;20811693;28;20067;-61
2022/07/25 21:31:12;;;;;;;5.03;1.30;;;;;;;21.62;67.76;100803.28;20804818;28;20048;-61
2022/07/25 21:41:34;;;;;;;4.20;1.30;;;;;;;21.68;68.66;100807.94;20811395;28;20041;-61
2022/07/25 21:51:55;;;;;;;7.18;1.50;;;;;;;21.34;69.72;100801.16;20825980;28;20390;-61
2022/07/25 22:02:18;;;;;;;9.07;1.50;;;;;;;21.46;70.00;100807.78;20826398;28;20433;-61
2022/07/25 22:12:40;;;;;;;6.47;1.40;;;;;;;21.43;70.76;100802.81;20819969;28;20046;-61
2022/07/25 22:23:02;;;;;;;7.35;1.60;;;;;;;21.22;72.35;100810.47;20823569;28;20053;-61
2022/07/25 22:33:26;;;;;;;7.32;1.58;;;;;;;21.34;71.76;100822.41;20821028;28;20042;-62
2022/07/25 22:43:48;;;;;;;6.63;1.65;;;;;;;21.24;73.23;100824.41;20818526;28;20072;-61
2022/07/25 22:54:19;;;;;;;5.75;1.48;;;;;;;21.07;74.18;100825.41;20818276;28;20430;-61
2022/07/25 23:04:41;;;;;;;12.60;1.92;;;;;;;21.16;74.13;100831.53;20819196;28;20718;-61
2022/07/25 23:15:03;;;;;;;6.38;1.48;;;;;;;20.80;75.65;100836.31;20817932;28;20037;-60
2022/07/25 23:25:25;;;;;;;9.38;1.70;;;;;;;20.80;76.03;100838.97;20818856;28;20042;-60
2022/07/25 23:35:46;;;;;;;7.30;1.80;;;;;;;20.47;79.02;100850.44;20816060;28;20052;-61
2022/07/25 23:46:08;;;;;;;7.63;1.70;;;;;;;20.48;79.40;100862.69;20812921;28;20387;-61
2022/07/25 23:56:29;;;;;;;9.60;1.55;;;;;;;20.32;81.09;100850.38;20812305;28;20045;-61
